Flight Track Log - Related Links

Times and Time Zones

All times are in EDT time to prevent confusion due to time zone crossing. See the ASQ5311 flight status page for this flight to view local times or setup timezone preferences in your user account.

Time Position Orientation Groundspeed Altitude Reporting Facility
EDT Latitude Longitude Course Direction KTS MPH feet Rate Location/Type
22:29 40.7389 -73.8394 37° Northeast 149 171 2,600  Level Boston Center
22:30 40.7597 -73.7794 65° Northeast 243 280 4,600 2,016 Climbing Boston Center
22:31 40.8311 -73.7289 28° Northeast 283 326 6,700 2,430 Climbing Boston Center
22:32 40.9047 -73.6697 31° Northeast 304 350 9,500 2,083 Climbing Boston Center
22:33 40.9903 -73.6178 25° Northeast 346 398 10,900 1,525 Climbing Boston Center
22:34 41.3212 -73.4288 37° Northeast  Level FlightAware Approximate
22:34 41.0978 -73.5481 26° Northeast 384 442 12,600  Level Boston Center
22:35 41.2000 -73.4858 25° Northeast 401 461 14,700 1,884 Climbing Boston Center
22:36 41.3028 -73.4244 24° Northeast 404 465 16,400 1,438 Climbing Boston Center
22:37 41.4053 -73.3611 25° Northeast 404 465 17,600 1,279 Climbing Boston Center
22:38 41.5044 -73.2994 25° Northeast 425 489 19,000 1,525 Climbing Boston Center
22:39 41.6353 -73.3089 357° North 423 487 20,700 1,587 Climbing Boston Center
22:40 41.7556 -73.3136 358° North 430 495 22,200 1,488 Climbing Boston Center
22:41 41.8781 -73.3172 359° North 437 503 23,700 1,377 Climbing Boston Center
22:42 42.0008 -73.3192 359° North 439 505 25,000 1,140 Climbing Boston Center
22:43 42.1283 -73.3222 359° North 449 517 26,000 992 Climbing Boston Center
22:44 42.2453 -73.2667 19° North 467 537 27,000 492 Climbing Boston Center
22:45 42.3314 -73.1306 49° Northeast 476 548 27,000  Level Boston Center
22:46 42.4228 -72.9811 50° Northeast 477 549 27,000  Level Boston Center
22:47 42.5114 -72.8367 50° Northeast 486 559 27,000  Level Boston Center
22:48 42.5983 -72.6953 50° Northeast 486 559 27,000  Level Boston Center
22:49 42.6706 -72.5772 50° Northeast 482 555 27,000  Level Boston Center
22:50 42.7567 -72.4358 50° Northeast 482 555 27,000  Level Boston Center
22:51 42.8408 -72.2953 51° Northeast 482 555 27,000  Level Boston Center
22:52 42.9364 -72.1369 50° Northeast 480 552 27,000  Level Boston Center
22:53 43.0197 -71.9981 51° Northeast 478 550 27,000  Level Boston Center
22:54 43.1022 -71.8600 51° Northeast 474 545 27,000  Level Boston Center
22:55 43.1825 -71.7214 52° Northeast 469 540 27,000  Level Boston Center
22:56 43.2664 -71.5828 50° Northeast 470 541 27,000  Level Boston Center
22:57 43.3494 -71.4397 51° Northeast 478 550 27,000  Level Boston Center
22:58 43.4331 -71.2956 51° Northeast 481 554 27,000  Level Boston Center
22:59 43.5183 -71.1511 51° Northeast 482 555 27,000  Level Boston Center
23:00 43.6008 -71.0033 52° Northeast 484 557 27,000  Level Boston Center
23:01 43.6961 -70.8397 51° Northeast 486 559 27,000  Level Boston Center
23:02 43.7808 -70.6897 52° Northeast 489 563 27,000  Level Boston Center
23:03 43.8644 -70.5414 52° Northeast 489 563 27,000 -793 Level Boston Center
23:04 43.9483 -70.3944 52° Northeast 488 562 25,400 -1,983 Descending Boston Center
23:05 44.0317 -70.2478 52° Northeast 485 558 23,000 -2,361 Descending Boston Center
23:06 44.1111 -70.1047 52° Northeast 470 541 20,600 -2,479 Descending Boston Center
23:07 44.1922 -69.9592 52° Northeast 453 521 18,000 -2,479 Descending Boston Center
23:08 44.2672 -69.8247 52° Northeast 444 511 15,600 -2,213 Descending Boston Center
23:09 44.3353 -69.6942 54° Northeast 416 479 13,500 -1,983 Descending Boston Center
23:10 44.3847 -69.5706 61° Northeast 389 448 11,600 -1,388 Descending Boston Center
23:11 44.4325 -69.4511 61° Northeast 355 409 10,700 -1,180 Descending Boston Center
23:12 44.4739 -69.3486 60° Northeast 309 356 9,200 -1,475 Descending Boston Center
23:13 44.5114 -69.2503 62° Northeast 292 336 7,700 -1,488 Descending Boston Center
23:14 44.5486 -69.1564 61° Northeast 281 323 6,200 -1,488 Descending Boston Center
23:15 44.5856 -69.0636 61° Northeast 278 320 4,700 -1,475 Descending Boston Center
23:16 44.6222 -68.9764 59° Northeast 265 305 3,200 -843 Descending Boston Center
23:17 44.6569 -68.8956 59° Northeast 246 283 3,000 -347 Descending Boston Center
23:18 44.6858 -68.8242 60° Northeast 215 247 2,500 -443 Descending Boston Center
23:19 44.7214 -68.7836 39° Northeast 171 197 2,100 -738 Descending Boston Center
23:20 44.7714 -68.7764 North 162 186 1,000 -893 Descending Boston Center
23:21 44.7944 -68.8108 313° West 153 176 300 -700 Descending Boston Center
23:23 44.8000 -68.8167 50° Northeast  Level FlightAware Approximate

Login

Don't have an account? Register now (free) for customized features, flight alerts, and more!